createdAt,value
2023-04-25T00:01:25.504Z,45.40
2023-04-25T00:03:52.506Z,44.82
2023-04-25T00:06:19.696Z,45.14
2023-04-25T00:08:46.430Z,44.70
2023-04-25T00:11:13.067Z,43.95
2023-04-25T00:13:42.988Z,44.53
2023-04-25T00:16:09.809Z,44.23
2023-04-25T00:18:37.612Z,44.42
2023-04-25T00:21:04.241Z,45.33
2023-04-25T00:23:30.984Z,46.38
2023-04-25T00:25:57.868Z,47.39
2023-04-25T00:28:24.528Z,45.79
2023-04-25T00:30:51.462Z,45.63
2023-04-25T00:33:18.247Z,46.27
2023-04-25T00:35:44.971Z,46.92
2023-04-25T00:38:11.787Z,48.11
2023-04-25T00:40:38.472Z,47.82
2023-04-25T00:43:05.156Z,48.52
2023-04-25T00:45:31.853Z,48.16
2023-04-25T00:47:58.555Z,48.50
2023-04-25T00:50:25.997Z,48.06
2023-04-25T00:52:52.673Z,48.35
2023-04-25T00:55:19.501Z,46.87
2023-04-25T00:57:46.182Z,49.55
2023-04-25T01:00:14.947Z,50.13
2023-04-25T01:02:43.720Z,50.47
2023-04-25T01:05:11.029Z,50.28
2023-04-25T01:07:37.786Z,49.71
2023-04-25T01:10:06.163Z,50.09
2023-04-25T01:12:32.818Z,51.15
2023-04-25T01:14:59.835Z,51.74
2023-04-25T01:17:26.811Z,51.43
2023-04-25T01:19:53.640Z,51.68
2023-04-25T01:22:20.513Z,51.31
2023-04-25T01:24:47.312Z,51.04
2023-04-25T01:27:14.207Z,51.19
2023-04-25T01:29:40.905Z,52.32
2023-04-25T01:32:07.764Z,52.34
2023-04-25T01:34:34.576Z,51.56
2023-04-25T01:37:03.132Z,53.03
2023-04-25T01:39:29.785Z,52.48
2023-04-25T01:41:57.591Z,54.38
2023-04-25T01:44:24.613Z,54.40
2023-04-25T01:46:51.434Z,56.31
2023-04-25T01:49:18.099Z,56.02
2023-04-25T01:51:44.807Z,56.13
2023-04-25T01:54:11.445Z,54.43
2023-04-25T01:56:38.813Z,53.00
2023-04-25T01:59:06.730Z,50.98
2023-04-25T02:01:33.799Z,51.07
2023-04-25T02:04:00.907Z,51.74
2023-04-25T02:06:27.923Z,51.80
2023-04-25T02:08:54.613Z,52.55
2023-04-25T02:11:21.433Z,51.73
2023-04-25T02:13:48.310Z,51.89
2023-04-25T02:16:15.357Z,51.87
2023-04-25T02:18:42.088Z,52.39
2023-04-25T02:21:08.907Z,51.35
2023-04-25T02:23:35.617Z,51.14
2023-04-25T02:26:02.490Z,52.66
2023-04-25T02:28:29.251Z,51.81
2023-04-25T02:30:56.066Z,52.89
2023-04-25T02:33:22.890Z,53.25
2023-04-25T02:35:49.577Z,53.17
2023-04-25T02:38:16.462Z,54.63
2023-04-25T02:40:43.226Z,53.91
2023-04-25T02:43:09.996Z,54.25
2023-04-25T02:45:36.631Z,54.17
2023-04-25T02:48:04.065Z,53.72
2023-04-25T02:50:30.759Z,53.97
2023-04-25T02:52:57.536Z,53.55
2023-04-25T02:55:26.212Z,55.67
2023-04-25T02:57:56.465Z,54.88
2023-04-25T03:00:23.707Z,55.14
2023-04-25T03:02:50.519Z,55.21
2023-04-25T03:05:18.266Z,55.74
2023-04-25T03:07:46.054Z,56.13
2023-04-25T03:10:12.990Z,56.05
2023-04-25T03:12:39.691Z,55.77
2023-04-25T03:15:07.023Z,55.75
2023-04-25T03:17:33.831Z,56.41
2023-04-25T03:20:00.598Z,56.03
2023-04-25T03:22:27.404Z,55.76
2023-04-25T03:24:54.366Z,56.09
2023-04-25T03:27:21.284Z,55.61
2023-04-25T03:29:47.941Z,55.27
2023-04-25T03:32:17.779Z,54.99
2023-04-25T03:34:44.632Z,54.46
2023-04-25T03:37:11.327Z,55.23
2023-04-25T03:39:39.045Z,56.19
2023-04-25T03:42:05.882Z,56.53
2023-04-25T03:44:32.829Z,57.22
2023-04-25T03:47:00.066Z,57.10
2023-04-25T03:49:27.156Z,57.29
2023-04-25T03:51:53.877Z,57.64
2023-04-25T03:54:20.866Z,58.19
2023-04-25T03:56:47.693Z,58.23
2023-04-25T03:59:14.423Z,57.58
2023-04-25T04:01:41.097Z,57.83
2023-04-25T04:04:08.000Z,58.16
2023-04-25T04:06:35.135Z,57.62
2023-04-25T04:09:01.835Z,58.32
2023-04-25T04:11:28.561Z,58.70
2023-04-25T04:13:55.188Z,58.70
2023-04-25T04:16:21.852Z,58.36
2023-04-25T04:18:48.500Z,58.66
2023-04-25T04:21:15.199Z,58.33
2023-04-25T04:23:42.062Z,58.79
2023-04-25T04:26:10.028Z,59.49
2023-04-25T04:28:37.059Z,59.49
2023-04-25T04:31:04.085Z,60.30
2023-04-25T04:33:32.285Z,60.98
2023-04-25T04:35:59.058Z,61.14
2023-04-25T04:38:26.611Z,61.14
2023-04-25T04:40:53.569Z,61.09
2023-04-25T04:43:20.360Z,61.41
2023-04-25T04:45:47.065Z,62.07
2023-04-25T04:48:15.235Z,61.94
2023-04-25T04:50:42.251Z,62.29
2023-04-25T04:53:08.948Z,62.94
2023-04-25T04:55:35.810Z,63.36
2023-04-25T04:58:02.498Z,63.86
2023-04-25T05:00:30.763Z,64.42
2023-04-25T05:02:58.032Z,64.34
2023-04-25T05:05:25.181Z,64.33
2023-04-25T05:07:52.028Z,64.85
2023-04-25T05:10:19.931Z,65.09
2023-04-25T05:12:46.700Z,65.36
2023-04-25T05:15:13.549Z,65.20
2023-04-25T05:17:40.642Z,62.02
2023-04-25T05:20:08.848Z,57.02
2023-04-25T05:22:35.828Z,54.04
2023-04-25T05:25:02.772Z,52.03
2023-04-25T05:27:29.552Z,49.59
2023-04-25T05:29:56.399Z,48.32
2023-04-25T05:32:23.616Z,47.87
2023-04-25T05:34:50.658Z,49.57
2023-04-25T05:37:17.424Z,48.95
2023-04-25T05:39:44.178Z,46.82
2023-04-25T05:42:11.605Z,44.86
2023-04-25T05:44:38.353Z,44.55
2023-04-25T05:47:06.348Z,45.03
2023-04-25T05:49:33.184Z,46.07
2023-04-25T05:51:59.832Z,47.07
2023-04-25T05:54:27.841Z,48.25
2023-04-25T05:56:54.615Z,49.19
2023-04-25T05:59:21.340Z,49.87
2023-04-25T06:01:48.281Z,51.03
2023-04-25T06:04:15.214Z,52.61
2023-04-25T06:06:42.450Z,53.91
2023-04-25T06:09:09.116Z,53.61
2023-04-25T06:11:35.990Z,54.08
2023-04-25T06:14:02.748Z,54.92
2023-04-25T06:16:29.543Z,55.94
2023-04-25T06:18:56.347Z,56.85
2023-04-25T06:21:23.100Z,54.91
2023-04-25T06:23:49.876Z,52.79
2023-04-25T06:26:17.294Z,50.39
2023-04-25T06:28:43.958Z,50.27
2023-04-25T06:31:10.598Z,51.01
2023-04-25T06:33:37.412Z,52.89
2023-04-25T06:36:04.212Z,54.30
2023-04-25T06:38:31.020Z,56.45
2023-04-25T06:40:57.662Z,57.65
2023-04-25T06:43:24.431Z,57.74
2023-04-25T06:45:51.114Z,58.21
2023-04-25T06:48:17.842Z,57.64
2023-04-25T06:50:44.692Z,57.00
2023-04-25T06:53:12.831Z,55.46
2023-04-25T06:55:39.595Z,54.78
2023-04-25T06:58:06.293Z,55.75
2023-04-25T07:00:33.696Z,55.33
2023-04-25T07:03:00.777Z,53.36
2023-04-25T07:05:28.019Z,51.73
2023-04-25T07:07:54.698Z,52.48
2023-04-25T07:10:22.690Z,51.42
2023-04-25T07:12:49.356Z,50.82
2023-04-25T07:15:16.057Z,51.11
2023-04-25T07:17:43.530Z,51.31
2023-04-25T07:20:11.127Z,50.80
2023-04-25T07:22:37.771Z,45.46
2023-04-25T07:25:05.483Z,38.69
2023-04-25T07:27:34.617Z,38.72
2023-04-25T07:30:01.419Z,40.18
2023-04-25T07:32:28.172Z,40.95
2023-04-25T07:34:55.027Z,42.48
2023-04-25T07:37:21.783Z,42.13
2023-04-25T07:39:48.562Z,45.33
2023-04-25T07:42:15.337Z,45.69
2023-04-25T07:44:43.429Z,46.31
2023-04-25T07:47:10.220Z,47.62
2023-04-25T07:49:37.247Z,48.13
2023-04-25T07:52:04.371Z,47.64
2023-04-25T07:54:31.127Z,48.55
2023-04-25T07:56:58.007Z,49.80
2023-04-25T07:59:29.408Z,50.93
2023-04-25T08:01:58.613Z,52.57
2023-04-25T08:04:26.373Z,53.21
2023-04-25T08:06:54.859Z,53.08
2023-04-25T08:09:21.808Z,53.37
2023-04-25T08:11:48.629Z,52.98
2023-04-25T08:14:15.580Z,50.09
2023-04-25T08:16:43.268Z,48.42
2023-04-25T08:19:10.674Z,46.74
2023-04-25T08:21:37.420Z,45.52
2023-04-25T08:24:04.304Z,44.06
2023-04-25T08:26:31.247Z,43.98
2023-04-25T08:28:57.944Z,43.94
2023-04-25T08:31:24.812Z,43.80
2023-04-25T08:33:53.227Z,44.86
2023-04-25T08:36:31.637Z,45.71
2023-04-25T08:39:06.001Z,46.20
2023-04-25T08:41:33.046Z,46.31
2023-04-25T08:44:01.471Z,46.54
2023-04-25T08:46:28.371Z,45.11
2023-04-25T08:48:57.310Z,43.55
2023-04-25T08:51:29.112Z,42.66
2023-04-25T08:53:57.993Z,40.71
2023-04-25T08:56:29.221Z,40.13
2023-04-25T08:58:57.285Z,40.31
2023-04-25T09:01:23.916Z,39.48
2023-04-25T09:03:50.785Z,41.96
2023-04-25T09:06:17.592Z,43.52
2023-04-25T09:08:44.378Z,45.98
2023-04-25T09:11:11.260Z,47.75
2023-04-25T09:13:38.040Z,49.09
2023-04-25T09:16:04.775Z,49.21
2023-04-25T09:18:32.853Z,49.15
2023-04-25T09:21:13.123Z,50.55
2023-04-25T09:23:42.175Z,51.60
2023-04-25T09:26:09.159Z,53.29
2023-04-25T09:28:36.449Z,55.05
2023-04-25T09:31:03.071Z,55.86
2023-04-25T09:33:31.216Z,56.50
2023-04-25T09:36:03.381Z,56.50
2023-04-25T09:38:31.495Z,56.26
2023-04-25T09:40:58.511Z,56.47
2023-04-25T09:43:25.454Z,55.71
2023-04-25T09:45:52.897Z,57.00
2023-04-25T09:48:21.190Z,56.25
2023-04-25T09:51:09.373Z,55.19
2023-04-25T09:53:39.944Z,55.14
2023-04-25T09:56:08.054Z,54.29
2023-04-25T09:58:35.184Z,53.76
2023-04-25T10:01:03.149Z,53.52
2023-04-25T10:03:33.922Z,53.78
2023-04-25T10:06:01.254Z,54.87
2023-04-25T10:08:30.040Z,54.80
2023-04-25T10:10:57.425Z,54.37
2023-04-25T10:13:24.190Z,53.14
2023-04-25T10:15:51.102Z,52.32
2023-04-25T10:18:19.509Z,51.72
2023-04-25T10:20:46.144Z,51.17
2023-04-25T10:23:14.305Z,50.48
2023-04-25T10:25:41.899Z,48.30
2023-04-25T10:28:08.513Z,48.98
2023-04-25T10:30:35.187Z,49.05
2023-04-25T10:33:02.005Z,51.10
2023-04-25T10:35:29.495Z,48.68
2023-04-25T10:37:59.756Z,47.68
2023-04-25T10:40:26.726Z,46.54
2023-04-25T10:42:55.651Z,45.16
2023-04-25T10:45:22.508Z,45.75
2023-04-25T10:47:49.500Z,44.39
2023-04-25T10:50:17.616Z,44.66
2023-04-25T10:52:45.552Z,46.02
2023-04-25T10:55:12.332Z,46.45
2023-04-25T10:57:42.113Z,46.49
2023-04-25T11:00:16.573Z,47.65
2023-04-25T11:02:49.349Z,47.51
2023-04-25T11:05:21.472Z,46.65
2023-04-25T11:08:03.902Z,46.11
2023-04-25T11:10:36.426Z,47.63
2023-04-25T11:13:03.337Z,46.06
2023-04-25T11:15:30.330Z,43.84
2023-04-25T11:17:57.006Z,43.45
2023-04-25T11:20:23.904Z,42.58
2023-04-25T11:22:51.667Z,40.53
2023-04-25T11:25:21.341Z,39.85
2023-04-25T11:27:54.836Z,40.26
2023-04-25T11:30:22.003Z,39.82
2023-04-25T11:32:48.743Z,40.42
2023-04-25T11:35:16.332Z,39.47
2023-04-25T11:37:43.353Z,39.17
2023-04-25T11:40:11.038Z,41.22
2023-04-25T11:42:38.238Z,39.30
2023-04-25T11:45:05.306Z,40.06
2023-04-25T11:47:32.639Z,40.64
2023-04-25T11:50:00.775Z,38.77
2023-04-25T11:52:37.032Z,38.39
2023-04-25T11:55:07.318Z,39.81
2023-04-25T11:57:36.212Z,39.90
2023-04-25T12:00:09.843Z,43.05
2023-04-25T12:02:37.221Z,43.65
2023-04-25T12:05:21.614Z,45.57
2023-04-25T12:07:54.067Z,49.12
2023-04-25T12:10:21.664Z,48.53
2023-04-25T12:12:48.813Z,50.14
2023-04-25T12:15:22.542Z,51.12
2023-04-25T12:17:50.316Z,50.61
2023-04-25T12:20:17.920Z,50.37
2023-04-25T12:22:45.776Z,47.54
2023-04-25T12:25:13.726Z,47.42
2023-04-25T12:27:47.958Z,47.39
2023-04-25T12:30:14.737Z,47.24
2023-04-25T12:32:41.454Z,47.41
2023-04-25T12:35:08.364Z,48.90
2023-04-25T12:37:35.053Z,49.53
2023-04-25T12:40:01.661Z,50.07
2023-04-25T12:42:28.302Z,51.23
2023-04-25T12:44:55.126Z,50.64
2023-04-25T12:47:22.160Z,51.57
2023-04-25T12:49:49.278Z,50.60
2023-04-25T12:52:15.862Z,50.77
2023-04-25T12:54:42.507Z,51.09
2023-04-25T12:57:09.422Z,50.53
2023-04-25T12:59:36.516Z,52.77
2023-04-25T13:02:04.461Z,51.22
2023-04-25T13:04:31.239Z,50.96
2023-04-25T13:06:58.003Z,51.25
2023-04-25T13:09:24.653Z,51.53
2023-04-25T13:11:51.371Z,50.89
2023-04-25T13:14:18.047Z,52.42
2023-04-25T13:16:44.876Z,51.41
2023-04-25T13:19:12.812Z,49.85
2023-04-25T13:21:39.467Z,53.46
2023-04-25T13:24:06.439Z,51.59
2023-04-25T13:26:33.190Z,52.96
2023-04-25T13:29:01.609Z,53.04
2023-04-25T13:31:28.585Z,54.48
2023-04-25T13:33:55.564Z,54.19
2023-04-25T13:36:22.398Z,53.56
2023-04-25T13:38:50.487Z,51.19
2023-04-25T13:41:20.108Z,50.79
2023-04-25T13:43:49.260Z,51.31
2023-04-25T13:46:35.304Z,50.59
2023-04-25T13:49:12.168Z,49.70
2023-04-25T13:51:39.870Z,48.66
2023-04-25T13:54:06.732Z,49.80
2023-04-25T13:56:33.478Z,48.56
2023-04-25T13:59:00.164Z,48.17
2023-04-25T14:01:27.828Z,47.07
2023-04-25T14:03:54.925Z,47.29
2023-04-25T14:06:24.060Z,45.59
2023-04-25T14:08:51.587Z,45.29
2023-04-25T14:11:19.612Z,45.80
2023-04-25T14:13:46.719Z,46.73
2023-04-25T14:16:13.673Z,46.45
2023-04-25T14:18:40.330Z,46.99
2023-04-25T14:21:06.924Z,47.32
2023-04-25T14:23:33.602Z,48.18
2023-04-25T14:26:00.371Z,50.14
2023-04-25T14:28:26.986Z,49.51
2023-04-25T14:30:53.982Z,51.44
2023-04-25T14:33:20.709Z,53.78
2023-04-25T14:35:47.589Z,53.02
2023-04-25T14:38:14.800Z,50.71
2023-04-25T14:40:41.631Z,50.30
2023-04-25T14:43:08.288Z,49.99
2023-04-25T14:45:35.050Z,53.15
2023-04-25T14:48:01.734Z,53.91
2023-04-25T14:50:28.495Z,52.49
2023-04-25T14:52:59.680Z,50.60
2023-04-25T14:55:26.671Z,51.11
2023-04-25T14:57:55.781Z,50.78
2023-04-25T15:00:24.152Z,48.11
2023-04-25T15:02:51.147Z,48.48
2023-04-25T15:05:18.901Z,47.71
2023-04-25T15:07:45.624Z,44.88
2023-04-25T15:10:14.822Z,44.89
2023-04-25T15:12:41.780Z,44.04
2023-04-25T15:15:14.251Z,42.08
2023-04-25T15:17:44.659Z,42.89
2023-04-25T15:20:11.847Z,42.74
2023-04-25T15:22:39.474Z,44.01
2023-04-25T15:25:07.892Z,44.21
2023-04-25T15:27:35.645Z,45.64
2023-04-25T15:30:02.291Z,48.09
2023-04-25T15:32:29.016Z,47.19
2023-04-25T15:34:55.920Z,49.45
2023-04-25T15:37:22.614Z,50.18
2023-04-25T15:39:49.351Z,48.84
2023-04-25T15:42:16.404Z,50.55
2023-04-25T15:44:43.144Z,50.85
2023-04-25T15:47:10.210Z,50.31
2023-04-25T15:49:36.851Z,50.94
2023-04-25T15:52:03.729Z,51.03
2023-04-25T15:54:30.383Z,50.49
2023-04-25T15:56:56.986Z,49.99
2023-04-25T15:59:23.722Z,49.14
2023-04-25T16:01:50.479Z,50.40
2023-04-25T16:04:17.651Z,49.47
2023-04-25T16:06:45.307Z,50.60
2023-04-25T16:09:12.542Z,49.59
2023-04-25T16:11:39.190Z,51.31
2023-04-25T16:14:06.017Z,52.15
2023-04-25T16:16:32.821Z,51.78
2023-04-25T16:18:59.559Z,52.83
2023-04-25T16:21:27.400Z,52.38
2023-04-25T16:23:54.126Z,51.47
2023-04-25T16:26:21.094Z,52.94
2023-04-25T16:28:47.929Z,52.61
2023-04-25T16:31:14.762Z,52.40
2023-04-25T16:33:41.486Z,51.83
2023-04-25T16:36:08.395Z,52.87
2023-04-25T16:38:35.205Z,52.12
2023-04-25T16:41:01.833Z,53.39
2023-04-25T16:43:28.435Z,52.32
2023-04-25T16:48:24.586Z,51.98
2023-04-25T16:50:52.590Z,52.69
2023-04-25T16:53:20.014Z,53.70
2023-04-25T16:55:47.501Z,54.07
2023-04-25T16:58:14.939Z,53.51
2023-04-25T17:00:42.032Z,54.52
2023-04-25T17:03:09.495Z,53.69
2023-04-25T17:05:37.325Z,53.82
2023-04-25T17:08:04.095Z,52.48
2023-04-25T17:10:30.946Z,52.38
2023-04-25T17:12:58.094Z,53.42
2023-04-25T17:15:24.753Z,53.51
2023-04-25T17:17:52.124Z,53.40
2023-04-25T17:20:18.916Z,53.98
2023-04-25T17:22:45.676Z,54.32
2023-04-25T17:25:12.405Z,53.69
2023-04-25T17:27:39.273Z,52.73
2023-04-25T17:30:07.296Z,52.13
2023-04-25T17:32:34.745Z,52.70
2023-04-25T17:35:01.520Z,53.83
2023-04-25T17:37:28.845Z,54.15
2023-04-25T17:39:55.611Z,54.54
2023-04-25T17:42:22.335Z,53.38
2023-04-25T17:44:49.190Z,54.37
2023-04-25T17:47:17.073Z,54.41
2023-04-25T17:49:43.752Z,54.84
2023-04-25T17:52:10.445Z,54.62
2023-04-25T17:54:37.535Z,55.59
2023-04-25T17:57:05.116Z,56.68
2023-04-25T17:59:31.894Z,57.13
2023-04-25T18:02:00.677Z,57.80
2023-04-25T18:04:27.501Z,57.48
2023-04-25T18:06:55.854Z,59.85
2023-04-25T18:09:23.942Z,61.40
2023-04-25T18:11:53.061Z,59.50
2023-04-25T18:14:20.883Z,61.29
2023-04-25T18:16:48.784Z,60.69
2023-04-25T18:19:22.061Z,60.73
2023-04-25T18:21:49.544Z,61.32
2023-04-25T18:24:21.629Z,60.41
2023-04-25T18:26:48.925Z,61.01
2023-04-25T18:29:29.088Z,62.18
2023-04-25T18:31:59.893Z,62.69
2023-04-25T18:34:27.720Z,63.34
2023-04-25T18:36:56.661Z,64.32
2023-04-25T18:39:24.705Z,64.36
2023-04-25T18:41:59.275Z,65.58
2023-04-25T18:44:31.137Z,66.32
2023-04-25T18:46:57.842Z,66.15
2023-04-25T18:49:24.657Z,65.92
2023-04-25T18:51:52.004Z,66.43
2023-04-25T18:54:18.887Z,66.48
2023-04-25T18:56:45.553Z,67.51
2023-04-25T18:59:12.408Z,68.11
2023-04-25T19:01:39.132Z,67.98
2023-04-25T19:04:07.200Z,67.17
2023-04-25T19:06:34.208Z,68.05
2023-04-25T19:09:00.951Z,68.25
2023-04-25T19:11:27.773Z,68.08
2023-04-25T19:13:57.396Z,67.94
2023-04-25T19:16:26.601Z,67.12
2023-04-25T19:18:54.453Z,67.92
2023-04-25T19:21:21.452Z,67.89
2023-04-25T19:23:48.256Z,68.04
2023-04-25T19:26:15.035Z,68.34
2023-04-25T19:28:43.209Z,68.49
2023-04-25T19:31:09.892Z,69.27
2023-04-25T19:33:36.659Z,69.46
2023-04-25T19:36:03.571Z,70.07
2023-04-25T19:38:30.308Z,70.16
2023-04-25T19:40:57.409Z,69.82
2023-04-25T19:43:24.153Z,70.11
2023-04-25T19:45:51.705Z,70.20
2023-04-25T19:48:18.500Z,70.27
2023-04-25T19:50:45.473Z,69.80
2023-04-25T19:53:12.099Z,69.56
2023-04-25T19:55:39.003Z,69.52
2023-04-25T19:58:07.194Z,70.50
2023-04-25T20:00:34.065Z,70.24
2023-04-25T20:03:01.309Z,70.40
2023-04-25T20:05:28.153Z,69.50
2023-04-25T20:07:54.916Z,69.09
2023-04-25T20:10:21.723Z,69.61
2023-04-25T20:12:49.064Z,70.04
2023-04-25T20:15:17.190Z,70.53
2023-04-25T20:17:43.865Z,70.82
2023-04-25T20:20:11.097Z,70.84
2023-04-25T20:22:39.248Z,71.55
2023-04-25T20:25:07.289Z,71.12
2023-04-25T20:27:33.960Z,71.34
2023-04-25T20:30:05.157Z,71.21
2023-04-25T20:32:34.840Z,71.57
2023-04-25T20:35:04.441Z,71.56
2023-04-25T20:37:34.840Z,72.32
2023-04-25T20:40:02.231Z,72.94
2023-04-25T20:42:29.229Z,73.97
2023-04-25T20:44:56.572Z,74.13
2023-04-25T20:47:23.354Z,74.45
2023-04-25T20:49:50.240Z,74.11
2023-04-25T20:52:19.967Z,73.73
2023-04-25T20:54:50.825Z,73.89
2023-04-25T20:57:17.940Z,73.85
2023-04-25T20:59:45.054Z,74.05
2023-04-25T21:02:12.345Z,74.14
2023-04-25T21:04:39.181Z,74.43
2023-04-25T21:07:06.028Z,74.16
2023-04-25T21:09:33.098Z,74.37
2023-04-25T21:11:59.964Z,74.43
2023-04-25T21:14:26.754Z,74.23
2023-04-25T21:16:53.576Z,74.19
2023-04-25T21:19:20.551Z,74.30
2023-04-25T21:21:47.225Z,74.29
2023-04-25T21:24:14.632Z,74.26
2023-04-25T21:26:41.289Z,74.41
2023-04-25T21:29:08.252Z,74.35
2023-04-25T21:31:35.086Z,74.36
2023-04-25T21:34:02.005Z,74.43
2023-04-25T21:36:29.188Z,74.47
2023-04-25T21:38:55.876Z,74.49
2023-04-25T21:41:22.705Z,74.57
2023-04-25T21:43:49.495Z,74.47
2023-04-25T21:46:23.401Z,74.95
2023-04-25T21:48:51.878Z,74.92
2023-04-25T21:51:18.877Z,75.13
2023-04-25T21:53:45.622Z,75.06
2023-04-25T21:56:12.651Z,74.61
2023-04-25T21:58:39.396Z,74.26
2023-04-25T22:01:06.244Z,74.33
2023-04-25T22:03:33.209Z,74.17
2023-04-25T22:06:00.399Z,74.11
2023-04-25T22:08:27.017Z,74.18
2023-04-25T22:10:55.731Z,73.94
2023-04-25T22:13:24.035Z,73.65
2023-04-25T22:15:51.139Z,73.12
2023-04-25T22:18:18.405Z,73.12
2023-04-25T22:20:45.155Z,73.01
2023-04-25T22:23:12.256Z,73.48
2023-04-25T22:25:40.880Z,73.13
2023-04-25T22:28:07.787Z,73.13
2023-04-25T22:30:35.664Z,72.90
2023-04-25T22:33:02.293Z,72.55
2023-04-25T22:35:29.108Z,72.46
2023-04-25T22:37:55.851Z,72.55
2023-04-25T22:40:22.771Z,72.46
2023-04-25T22:42:49.453Z,71.96
2023-04-25T22:45:16.253Z,71.05
2023-04-25T22:47:43.384Z,71.26
2023-04-25T22:50:13.964Z,71.54
2023-04-25T22:52:42.442Z,71.52
2023-04-25T22:55:10.930Z,71.45
2023-04-25T22:57:39.200Z,71.54
2023-04-25T23:00:10.992Z,71.91
2023-04-25T23:02:37.970Z,72.22
2023-04-25T23:05:07.345Z,72.70
2023-04-25T23:07:35.251Z,72.69
2023-04-25T23:10:02.204Z,73.21
2023-04-25T23:12:29.567Z,73.10
2023-04-25T23:14:56.330Z,73.21
2023-04-25T23:17:23.005Z,73.49
2023-04-25T23:19:49.755Z,73.98
2023-04-25T23:22:16.572Z,74.53
2023-04-25T23:24:43.987Z,74.63
2023-04-25T23:27:10.666Z,74.77
2023-04-25T23:29:37.457Z,75.10
2023-04-25T23:32:04.811Z,75.37
2023-04-25T23:34:31.925Z,75.40
2023-04-25T23:37:02.037Z,75.29
2023-04-25T23:39:28.962Z,75.25
2023-04-25T23:41:56.232Z,75.12
2023-04-25T23:44:22.940Z,75.86
2023-04-25T23:46:50.095Z,75.66
2023-04-25T23:49:16.920Z,75.72
2023-04-25T23:51:43.676Z,75.73
2023-04-25T23:54:10.448Z,75.59
2023-04-25T23:56:37.293Z,75.70
2023-04-25T23:59:04.076Z,75.73
